Time;durP1;ratioP1;P1;durP2;ratioP2;P2;SDS_P1;SDS_P2;PMS_P1;PMS_P2;Temp;Humidity;BMP_temperature;BMP_pressure;BME280_temperature;BME280_humidity;BME280_pressure;Samples;Min_cycle;Max_cycle;Signal;HPM_P1;HPM_P2
2022/11/13 00:01:43;;;;;;;135.17;27.57;;;;;;;5.84;100.00;101309.13;5007898;28;20640;-61
2022/11/13 00:04:09;;;;;;;132.10;26.07;;;;;;;5.82;100.00;101304.03;5022708;28;20197;-62
2022/11/13 00:06:35;;;;;;;112.67;25.33;;;;;;;5.78;100.00;101301.56;5026998;28;20203;-62
2022/11/13 00:09:00;;;;;;;134.50;26.57;;;;;;;5.61;100.00;101312.03;5030875;28;20192;-62
2022/11/13 00:11:25;;;;;;;153.23;26.80;;;;;;;5.62;100.00;101304.34;5037163;28;20734;-62
2022/11/13 00:13:50;;;;;;;137.90;26.33;;;;;;;5.69;100.00;101305.09;5036921;28;20568;-62
2022/11/13 00:16:18;;;;;;;87.97;26.33;;;;;;;5.69;100.00;101301.72;5030501;28;20325;-63
2022/11/13 00:18:44;;;;;;;76.57;25.67;;;;;;;5.66;100.00;101300.06;5030490;28;20196;-61
2022/11/13 00:21:21;;;;;;;85.50;25.93;;;;;;;5.52;100.00;101297.72;5029824;28;20255;-61
2022/11/13 00:23:47;;;;;;;57.93;23.37;;;;;;;5.53;100.00;101298.53;5030682;28;20174;-62
2022/11/13 00:26:19;;;;;;;74.97;24.03;;;;;;;5.33;100.00;101300.50;5031245;28;20186;-63
2022/11/13 00:28:44;;;;;;;80.97;23.80;;;;;;;5.40;100.00;101292.78;5030419;28;20635;-64
2022/11/13 00:31:12;;;;;;;72.43;23.53;;;;;;;5.47;100.00;101282.44;5009142;28;20224;-63
2022/11/13 00:33:38;;;;;;;46.83;22.70;;;;;;;5.67;100.00;101286.44;5029899;28;20687;-62
2022/11/13 00:36:24;;;;;;;60.83;23.13;;;;;;;5.69;100.00;101277.00;5031431;28;20184;-62
2022/11/13 00:38:50;;;;;;;54.93;22.20;;;;;;;5.66;100.00;101280.47;5030018;28;20223;-62
2022/11/13 00:41:15;;;;;;;62.73;22.37;;;;;;;5.71;100.00;101275.28;5023407;28;20346;-62
2022/11/13 00:43:41;;;;;;;43.87;19.30;;;;;;;5.41;100.00;101286.78;5037063;28;20635;-63
2022/11/13 00:46:09;;;;;;;49.53;19.97;;;;;;;5.28;100.00;101275.91;5031776;28;20270;-62
2022/11/13 00:48:35;;;;;;;66.57;21.07;;;;;;;5.14;100.00;101261.63;5031447;28;20183;-61
2022/11/13 00:51:01;;;;;;;38.27;20.40;;;;;;;5.17;100.00;101266.69;5022755;28;20658;-63
2022/11/13 00:53:27;;;;;;;39.23;20.33;;;;;;;5.13;100.00;101262.47;5038565;28;20563;-62
2022/11/13 00:55:52;;;;;;;48.97;20.50;;;;;;;5.07;100.00;101265.13;5031432;28;20628;-63
2022/11/13 00:58:17;;;;;;;38.50;20.00;;;;;;;5.12;100.00;101263.38;5042477;28;20176;-62
2022/11/13 01:00:45;;;;;;;30.73;19.23;;;;;;;4.96;100.00;101256.75;5033106;28;20217;-61
2022/11/13 01:03:11;;;;;;;35.43;19.70;;;;;;;4.83;100.00;101251.81;5034442;28;20274;-62
2022/11/13 01:05:39;;;;;;;82.00;21.53;;;;;;;4.66;100.00;101254.59;5027717;28;20182;-62
2022/11/13 01:08:04;;;;;;;92.70;20.27;;;;;;;4.65;100.00;101250.34;5029076;28;20548;-62
2022/11/13 01:10:30;;;;;;;51.17;19.80;;;;;;;4.60;100.00;101253.78;5024912;28;20237;-62
2022/11/13 01:12:56;;;;;;;113.10;21.53;;;;;;;4.58;100.00;101253.81;5020200;28;20199;-61
2022/11/13 01:15:21;;;;;;;78.87;19.73;;;;;;;4.59;100.00;101247.88;5033529;28;20255;-62
2022/11/13 01:17:46;;;;;;;35.83;19.07;;;;;;;4.71;100.00;101248.59;5034765;28;20210;-62
2022/11/13 01:20:12;;;;;;;318.60;27.87;;;;;;;4.48;100.00;101253.06;5025712;28;20248;-62
2022/11/13 01:22:37;;;;;;;486.40;31.43;;;;;;;4.23;100.00;101247.41;5034008;28;20179;-61
2022/11/13 01:25:03;;;;;;;459.80;30.97;;;;;;;4.28;100.00;101245.63;5035053;28;20578;-62
2022/11/13 01:27:28;;;;;;;155.57;22.07;;;;;;;4.44;100.00;101250.56;5032921;28;20178;-62
2022/11/13 01:29:54;;;;;;;325.33;24.87;;;;;;;4.32;100.00;101246.47;5035169;28;20193;-61
2022/11/13 01:32:19;;;;;;;100.20;17.43;;;;;;;4.47;100.00;101248.84;5024748;28;20311;-61
2022/11/13 01:34:44;;;;;;;240.93;21.07;;;;;;;4.68;100.00;101242.66;5035187;28;20178;-62
2022/11/13 01:37:10;;;;;;;250.80;23.73;;;;;;;4.48;100.00;101244.59;5038651;28;20711;-61
2022/11/13 01:39:35;;;;;;;76.03;16.43;;;;;;;4.74;100.00;101249.38;5054859;28;20177;-62
2022/11/13 01:42:00;;;;;;;67.60;16.63;;;;;;;4.79;100.00;101245.06;5043470;28;20316;-62
2022/11/13 01:44:46;;;;;;;151.33;18.27;;;;;;;4.89;100.00;101240.72;5055111;28;20643;-62
2022/11/13 01:47:12;;;;;;;114.57;16.47;;;;;;;4.86;100.00;101238.19;5054230;28;20184;-63
2022/11/13 01:49:40;;;;;;;160.43;19.30;;;;;;;4.90;100.00;101241.53;5054243;28;20178;-62
2022/11/13 01:52:11;;;;;;;56.70;16.57;;;;;;;5.05;100.00;101236.25;5042634;28;20218;-63
2022/11/13 01:54:43;;;;;;;151.37;18.37;;;;;;;5.10;100.00;101237.03;5028302;28;20185;-63
2022/11/13 01:57:08;;;;;;;207.00;21.23;;;;;;;5.10;100.00;101239.59;5040734;28;20180;-62
2022/11/13 01:59:39;;;;;;;53.77;15.70;;;;;;;5.14;100.00;101233.56;5061691;28;20285;-62
2022/11/13 02:02:05;;;;;;;65.63;16.70;;;;;;;5.20;100.00;101227.56;5036875;28;20226;-63
2022/11/13 02:04:31;;;;;;;76.83;16.07;;;;;;;5.18;100.00;101226.72;5053962;28;20611;-61
2022/11/13 02:07:00;;;;;;;82.00;16.17;;;;;;;5.22;100.00;101215.63;5019066;28;20183;-62
2022/11/13 02:09:29;;;;;;;134.87;17.30;;;;;;;5.21;100.00;101224.13;5036297;28;20690;-62
2022/11/13 02:11:55;;;;;;;98.43;15.90;;;;;;;5.23;100.00;101212.19;5021096;28;20225;-62
2022/11/13 02:14:23;;;;;;;130.90;16.73;;;;;;;4.99;100.00;101218.50;5035886;28;20719;-63
2022/11/13 02:16:53;;;;;;;141.33;15.17;;;;;;;4.89;100.00;101215.22;5035716;28;20182;-62
2022/11/13 02:19:30;;;;;;;77.37;15.77;;;;;;;5.07;100.00;101215.81;5035878;28;20193;-63
2022/11/13 02:22:22;;;;;;;73.10;14.83;;;;;;;5.03;100.00;101209.91;5026350;28;20217;-62
2022/11/13 02:24:48;;;;;;;76.33;15.80;;;;;;;4.91;100.00;101215.19;5053196;28;20214;-62
2022/11/13 02:27:44;;;;;;;79.43;16.53;;;;;;;4.79;100.00;101214.50;5051830;28;20734;-62
2022/11/13 02:30:19;;;;;;;84.73;15.10;;;;;;;4.77;100.00;101211.09;5015266;28;20193;-62
2022/11/13 02:32:50;;;;;;;59.33;15.93;;;;;;;4.63;100.00;101205.34;5053027;28;20204;-62
2022/11/13 02:35:26;;;;;;;98.53;17.03;;;;;;;4.68;100.00;101216.31;5035691;28;20191;-62
2022/11/13 02:37:53;;;;;;;79.43;18.53;;;;;;;4.81;100.00;101215.31;5052051;28;20246;-62
2022/11/13 02:40:19;;;;;;;94.67;16.77;;;;;;;4.72;100.00;101212.88;5042843;28;20310;-62
2022/11/13 02:42:44;;;;;;;67.30;17.50;;;;;;;4.51;100.00;101212.28;5035850;28;20182;-62
2022/11/13 02:45:09;;;;;;;116.80;18.20;;;;;;;4.46;100.00;101213.19;5053672;28;20261;-62
2022/11/13 02:47:35;;;;;;;51.90;16.97;;;;;;;4.52;100.00;101211.41;5052627;28;20608;-62
2022/11/13 02:50:00;;;;;;;127.50;19.27;;;;;;;4.43;100.00;101211.50;5053021;28;20239;-62
2022/11/13 02:52:26;;;;;;;97.40;19.70;;;;;;;4.45;100.00;101209.81;5041636;28;20629;-61
2022/11/13 02:54:51;;;;;;;197.07;20.60;;;;;;;4.43;100.00;101210.66;5053115;28;20288;-62
2022/11/13 02:57:16;;;;;;;109.63;21.10;;;;;;;4.42;100.00;101202.19;5051371;28;20754;-62
2022/11/13 02:59:42;;;;;;;61.73;18.47;;;;;;;4.45;100.00;101197.06;5059292;28;20209;-62
2022/11/13 03:02:07;;;;;;;77.00;19.87;;;;;;;4.65;100.00;101198.50;5052554;28;20225;-62
2022/11/13 03:04:32;;;;;;;54.97;16.27;;;;;;;4.72;100.00;101204.38;5053401;28;20539;-62
2022/11/13 03:06:58;;;;;;;105.57;20.03;;;;;;;4.73;100.00;101201.00;5052654;28;20226;-62
2022/11/13 03:09:23;;;;;;;98.80;19.87;;;;;;;4.78;100.00;101194.94;5053039;28;20189;-64
2022/11/13 03:11:48;;;;;;;175.27;21.93;;;;;;;4.66;100.00;101195.09;5045914;28;20225;-62
2022/11/13 03:14:14;;;;;;;62.70;18.63;;;;;;;4.75;100.00;101194.16;5052793;28;20652;-62
2022/11/13 03:16:39;;;;;;;49.50;18.30;;;;;;;4.87;100.00;101190.59;5052460;28;20187;-62
2022/11/13 03:19:04;;;;;;;44.40;18.00;;;;;;;4.92;100.00;101189.66;5053029;28;20201;-63
2022/11/13 03:21:30;;;;;;;97.13;19.07;;;;;;;4.94;100.00;101172.66;5041694;28;20236;-62
2022/11/13 03:23:56;;;;;;;112.57;19.10;;;;;;;4.85;100.00;101175.34;5049562;28;20205;-62
2022/11/13 03:26:21;;;;;;;54.73;17.83;;;;;;;4.52;100.00;101178.28;5034354;28;20265;-62
2022/11/13 03:28:46;;;;;;;65.63;17.10;;;;;;;4.43;100.00;101183.50;5052871;28;20277;-63
2022/11/13 03:31:12;;;;;;;114.03;18.60;;;;;;;4.41;100.00;101174.19;5042510;28;20221;-62
2022/11/13 03:33:37;;;;;;;125.50;18.47;;;;;;;4.35;100.00;101175.94;5034567;28;20206;-62
2022/11/13 03:36:03;;;;;;;102.07;19.00;;;;;;;4.21;100.00;101170.16;5034508;28;20208;-64
2022/11/13 03:38:29;;;;;;;126.97;20.30;;;;;;;4.16;100.00;101165.09;5033537;28;20218;-63
2022/11/13 03:40:54;;;;;;;187.37;21.67;;;;;;;4.12;100.00;101166.00;5041802;28;20245;-61
2022/11/13 03:43:21;;;;;;;152.20;21.97;;;;;;;4.03;100.00;101159.31;5051904;28;20240;-61
2022/11/13 03:45:47;;;;;;;107.73;20.23;;;;;;;4.03;100.00;101159.31;5033629;28;20586;-63
2022/11/13 03:48:14;;;;;;;85.87;20.43;;;;;;;4.13;100.00;101164.28;5016130;28;20293;-62
2022/11/13 03:50:42;;;;;;;137.87;19.97;;;;;;;4.10;100.00;101162.63;5040321;28;20294;-62
2022/11/13 03:53:07;;;;;;;72.77;19.47;;;;;;;4.16;100.00;101166.81;5033575;28;20215;-62
2022/11/13 03:55:33;;;;;;;63.37;19.03;;;;;;;3.87;100.00;101161.16;5052492;28;20268;-63
2022/11/13 03:57:58;;;;;;;87.43;19.73;;;;;;;3.72;100.00;101162.16;5063639;28;20662;-63
2022/11/13 04:00:23;;;;;;;182.20;21.83;;;;;;;3.63;100.00;101166.47;5035319;28;20246;-63
2022/11/13 04:02:48;;;;;;;193.43;22.47;;;;;;;3.61;100.00;101158.00;5058322;28;20342;-63
2022/11/13 04:05:14;;;;;;;65.33;19.63;;;;;;;3.62;100.00;101157.16;5051731;28;20191;-63
2022/11/13 04:07:39;;;;;;;86.83;20.77;;;;;;;3.60;100.00;101157.16;5051348;28;20250;-64
2022/11/13 04:10:05;;;;;;;163.97;22.03;;;;;;;3.67;100.00;101151.16;5048363;28;20238;-61
2022/11/13 04:12:30;;;;;;;64.13;20.20;;;;;;;3.75;100.00;101152.81;5048449;28;20206;-61
2022/11/13 04:14:55;;;;;;;95.43;19.40;;;;;;;3.68;100.00;101146.91;5052028;28;20184;-60
2022/11/13 04:17:20;;;;;;;215.03;24.53;;;;;;;3.70;100.00;101146.03;5038950;28;20646;-61
2022/11/13 04:19:46;;;;;;;70.00;19.93;;;;;;;3.90;100.00;101139.09;5051807;28;20181;-61
2022/11/13 04:22:11;;;;;;;143.07;23.00;;;;;;;3.80;100.00;101136.63;5040133;28;20599;-62
2022/11/13 04:24:37;;;;;;;120.27;20.70;;;;;;;3.74;100.00;101140.94;5051881;28;20189;-62
2022/11/13 04:27:02;;;;;;;255.60;24.10;;;;;;;3.68;100.00;101135.06;5051160;28;20227;-62
2022/11/13 04:29:27;;;;;;;189.80;20.53;;;;;;;3.68;100.00;101132.50;5051978;28;20607;-62
2022/11/13 04:31:53;;;;;;;128.50;19.63;;;;;;;3.63;100.00;101131.69;5018887;28;20225;-62
2022/11/13 04:34:18;;;;;;;185.67;22.03;;;;;;;3.81;100.00;101127.28;5050584;28;20220;-62
2022/11/13 04:36:43;;;;;;;126.00;17.90;;;;;;;3.79;100.00;101132.38;5050874;28;20192;-64
2022/11/13 04:39:09;;;;;;;96.83;18.27;;;;;;;3.72;100.00;101133.28;5051202;28;20181;-63
2022/11/13 04:44:18;;;;;;;142.40;18.57;;;;;;;3.71;100.00;101129.91;5050481;28;20183;-63
2022/11/13 04:46:43;;;;;;;92.57;16.97;;;;;;;3.66;100.00;101118.94;5051089;28;20272;-63
2022/11/13 04:49:09;;;;;;;114.73;18.10;;;;;;;3.63;100.00;101123.22;5050293;28;20178;-65
2022/11/13 04:51:34;;;;;;;50.60;14.93;;;;;;;3.66;100.00;101118.06;5040137;28;20233;-64
2022/11/13 04:53:59;;;;;;;33.90;15.07;;;;;;;3.55;100.00;101110.56;5050796;28;20208;-64
2022/11/13 04:56:24;;;;;;;48.27;15.00;;;;;;;3.46;100.00;101111.50;5050627;28;20268;-64
2022/11/13 04:58:50;;;;;;;76.83;16.23;;;;;;;3.40;100.00;101109.00;5063780;28;20201;-63
2022/11/13 05:01:15;;;;;;;55.43;15.13;;;;;;;3.30;100.00;101104.84;5051099;28;20224;-63
2022/11/13 05:03:40;;;;;;;75.33;15.10;;;;;;;3.26;100.00;101100.63;5050988;28;20177;-63
2022/11/13 05:06:08;;;;;;;59.47;15.70;;;;;;;3.31;100.00;101099.75;5050870;28;20192;-64
2022/11/13 05:08:33;;;;;;;53.13;17.20;;;;;;;3.21;100.00;101095.59;5032517;28;20186;-64
2022/11/13 05:11:00;;;;;;;31.17;14.83;;;;;;;3.36;100.00;101100.56;5044525;28;20228;-62
2022/11/13 05:13:26;;;;;;;55.53;15.53;;;;;;;3.31;100.00;101099.75;5033382;28;20291;-62
2022/11/13 05:16:05;;;;;;;51.63;16.03;;;;;;;3.19;100.00;101098.16;5033185;28;20287;-62
2022/11/13 05:18:31;;;;;;;36.10;14.33;;;;;;;3.31;100.00;101098.91;5050517;28;20211;-62
2022/11/13 05:20:57;;;;;;;31.23;13.87;;;;;;;3.39;100.00;101086.97;5039959;28;20686;-63
2022/11/13 05:23:22;;;;;;;36.83;14.13;;;;;;;3.38;100.00;101090.34;5050493;28;20321;-63
2022/11/13 05:25:47;;;;;;;40.93;14.23;;;;;;;3.11;100.00;101087.19;5051099;28;20260;-62
2022/11/13 05:28:13;;;;;;;67.93;15.20;;;;;;;3.17;100.00;101074.41;5050305;28;20199;-62
2022/11/13 05:30:38;;;;;;;63.97;16.03;;;;;;;3.17;100.00;101076.13;5022968;28;20325;-63
2022/11/13 05:33:03;;;;;;;51.80;14.10;;;;;;;2.94;100.00;101076.28;5049778;28;20223;-63
2022/11/13 05:35:29;;;;;;;108.27;16.23;;;;;;;2.93;100.00;101069.53;5050591;28;20201;-62
2022/11/13 05:37:54;;;;;;;58.50;14.90;;;;;;;2.97;100.00;101081.38;5032600;28;20635;-62
2022/11/13 05:40:19;;;;;;;185.40;18.83;;;;;;;3.14;100.00;101087.16;5039110;28;20227;-62
2022/11/13 05:42:45;;;;;;;33.77;14.07;;;;;;;2.96;100.00;101077.13;5038837;28;20278;-62
2022/11/13 05:45:10;;;;;;;38.83;16.93;;;;;;;3.13;100.00;101074.47;5050564;28;20178;-62
2022/11/13 05:47:35;;;;;;;60.17;16.50;;;;;;;3.11;100.00;101073.63;5050453;28;20170;-63
2022/11/13 05:50:02;;;;;;;105.77;18.53;;;;;;;3.04;100.00;101067.78;5050200;28;20239;-67
2022/11/13 05:52:27;;;;;;;45.33;14.33;;;;;;;3.18;100.00;101065.94;5022670;28;20595;-63
2022/11/13 05:54:52;;;;;;;138.77;16.40;;;;;;;2.95;100.00;101067.81;5050581;28;20191;-62
2022/11/13 05:57:17;;;;;;;91.77;15.77;;;;;;;2.99;100.00;101069.47;5056495;28;20491;-62
2022/11/13 05:59:43;;;;;;;112.80;15.90;;;;;;;2.92;100.00;101061.06;5057158;28;20340;-63
2022/11/13 06:02:08;;;;;;;77.43;15.10;;;;;;;2.96;100.00;101061.88;5053455;28;20220;-62
2022/11/13 06:04:33;;;;;;;31.73;16.37;;;;;;;3.10;100.00;101054.16;5054245;28;20203;-63
2022/11/13 06:06:58;;;;;;;78.90;16.10;;;;;;;3.07;100.00;101047.41;5053815;28;20550;-63
2022/11/13 06:09:24;;;;;;;100.57;16.07;;;;;;;3.07;100.00;101048.22;5054397;28;20200;-63
2022/11/13 06:11:49;;;;;;;115.63;15.77;;;;;;;2.99;100.00;101044.91;5047341;28;20723;-64
2022/11/13 06:14:14;;;;;;;84.23;15.67;;;;;;;3.03;100.00;101045.75;5053713;28;20213;-63
2022/11/13 06:16:40;;;;;;;98.40;14.77;;;;;;;2.99;100.00;101036.44;5053411;28;20253;-62
2022/11/13 06:19:08;;;;;;;153.23;17.60;;;;;;;2.98;100.00;101040.69;5053932;28;20200;-63
2022/11/13 06:21:37;;;;;;;62.90;15.43;;;;;;;2.93;100.00;101031.41;5042664;28;20240;-62
2022/11/13 06:24:03;;;;;;;83.03;16.67;;;;;;;3.11;100.00;101040.59;5035908;28;20331;-64
2022/11/13 06:26:31;;;;;;;85.10;17.20;;;;;;;3.22;100.00;101038.78;5053429;28;20644;-64
2022/11/13 06:28:57;;;;;;;93.87;18.77;;;;;;;2.92;100.00;101040.72;5036037;28;20215;-64
2022/11/13 06:31:25;;;;;;;135.43;19.30;;;;;;;3.13;100.00;101038.88;5043643;28;20271;-63
2022/11/13 06:33:51;;;;;;;69.97;17.37;;;;;;;3.11;100.00;101033.78;5035705;28;20221;-63
2022/11/13 06:36:22;;;;;;;37.73;18.07;;;;;;;2.98;100.00;101027.97;5053244;28;20185;-63
2022/11/13 06:38:48;;;;;;;68.87;17.33;;;;;;;3.22;100.00;101037.09;5051872;28;20213;-63
2022/11/13 06:41:15;;;;;;;88.70;18.30;;;;;;;3.36;100.00;101036.13;5040322;28;20224;-62
2022/11/13 06:43:42;;;;;;;54.43;16.70;;;;;;;3.24;100.00;101037.09;5034893;28;20194;-63
2022/11/13 06:46:12;;;;;;;44.97;17.00;;;;;;;2.94;100.00;101036.50;5034196;28;20239;-64
2022/11/13 06:48:37;;;;;;;49.80;16.17;;;;;;;3.12;100.00;101029.56;5030081;28;20174;-63
2022/11/13 06:51:06;;;;;;;68.83;15.93;;;;;;;3.15;100.00;101026.97;5042797;28;20225;-63
2022/11/13 06:53:32;;;;;;;44.23;16.00;;;;;;;3.37;100.00;101025.94;5025757;28;20193;-62
2022/11/13 06:55:58;;;;;;;97.63;17.33;;;;;;;3.42;100.00;101025.06;5052704;28;20243;-64
2022/11/13 06:58:23;;;;;;;94.07;17.40;;;;;;;3.49;100.00;101024.97;5035386;28;20599;-65
2022/11/13 07:00:49;;;;;;;41.90;16.00;;;;;;;3.51;100.00;101025.81;5043809;28;20227;-65
2022/11/13 07:03:18;;;;;;;31.37;14.40;;;;;;;3.53;100.00;101031.69;5029275;28;20830;-64
2022/11/13 07:05:44;;;;;;;97.13;17.27;;;;;;;3.48;100.00;101032.63;5031190;28;20238;-64
2022/11/13 07:08:10;;;;;;;45.50;14.93;;;;;;;3.43;100.00;101029.28;5033198;28;20686;-64
2022/11/13 07:10:35;;;;;;;56.17;16.97;;;;;;;3.57;100.00;101026.59;5024431;28;20802;-64
2022/11/13 07:13:01;;;;;;;51.33;17.83;;;;;;;3.58;100.00;101026.56;5033618;28;20256;-65
2022/11/13 07:15:26;;;;;;;61.10;15.77;;;;;;;3.62;100.00;101020.59;5049063;28;20178;-64
2022/11/13 07:17:52;;;;;;;31.90;15.97;;;;;;;3.76;100.00;101023.00;5051339;28;20709;-65
2022/11/13 07:20:17;;;;;;;30.87;13.97;;;;;;;3.73;100.00;101015.38;5025388;28;20252;-64
2022/11/13 07:22:43;;;;;;;57.90;15.50;;;;;;;3.91;100.00;101016.88;5051806;28;20633;-65
2022/11/13 07:25:08;;;;;;;21.47;15.37;;;;;;;3.85;100.00;101017.78;5052843;28;20178;-65
2022/11/13 07:27:33;;;;;;;72.37;16.60;;;;;;;3.88;100.00;101021.97;5052339;28;20186;-64
2022/11/13 07:29:59;;;;;;;45.70;17.23;;;;;;;3.61;100.00;101024.00;5052159;28;20166;-63
2022/11/13 07:32:24;;;;;;;36.07;16.50;;;;;;;3.47;100.00;101013.13;5026764;28;20229;-65
2022/11/13 07:34:49;;;;;;;52.80;16.77;;;;;;;3.47;100.00;101015.66;5051776;28;20293;-62
2022/11/13 07:37:14;;;;;;;37.67;16.93;;;;;;;3.41;100.00;101019.09;5031662;28;20275;-62
2022/11/13 07:39:40;;;;;;;28.77;16.27;;;;;;;3.63;100.00;101022.25;5052318;28;20629;-63
2022/11/13 07:42:05;;;;;;;34.80;16.83;;;;;;;3.80;100.00;101023.81;5040308;28;20225;-63
2022/11/13 07:44:30;;;;;;;21.73;16.93;;;;;;;4.00;100.00;101011.66;5052316;28;20189;-63
2022/11/13 07:46:56;;;;;;;18.43;14.97;;;;;;;4.08;100.00;101003.09;5051656;28;20308;-63
2022/11/13 07:49:21;;;;;;;15.73;12.83;;;;;;;3.99;100.00;100997.22;5052322;28;20188;-63
2022/11/13 07:51:46;;;;;;;14.50;12.97;;;;;;;3.91;100.00;101001.59;5040774;28;20237;-63
2022/11/13 07:54:11;;;;;;;14.07;12.57;;;;;;;3.96;100.00;101004.94;5051855;28;20670;-63
2022/11/13 07:56:37;;;;;;;17.00;13.37;;;;;;;4.15;100.00;101004.69;5052069;28;20185;-64
2022/11/13 07:59:02;;;;;;;20.87;14.67;;;;;;;4.14;100.00;100995.38;5064259;28;20201;-64
2022/11/13 08:01:27;;;;;;;15.90;12.60;;;;;;;4.14;100.00;101001.31;5041409;28;20765;-64
2022/11/13 08:03:53;;;;;;;15.23;13.23;;;;;;;4.28;100.00;100997.72;5051608;28;20217;-62
2022/11/13 08:06:18;;;;;;;15.47;10.80;;;;;;;4.38;100.00;100995.88;5051445;28;20524;-62
2022/11/13 08:08:47;;;;;;;14.33;11.23;;;;;;;4.21;100.00;100991.88;5052136;28;20193;-63
2022/11/13 08:11:12;;;;;;;13.50;11.40;;;;;;;4.34;100.00;100987.44;5045632;28;20220;-64
2022/11/13 08:13:37;;;;;;;12.53;11.10;;;;;;;4.51;100.00;100982.97;5051207;28;20204;-63
2022/11/13 08:16:04;;;;;;;13.60;11.30;;;;;;;4.53;100.00;100988.03;5040900;28;20232;-63
2022/11/13 08:18:30;;;;;;;12.67;11.30;;;;;;;4.63;100.00;100988.72;5033703;28;20201;-63
2022/11/13 08:20:56;;;;;;;13.50;12.10;;;;;;;4.82;100.00;100985.00;5023333;28;20225;-62
2022/11/13 08:23:21;;;;;;;12.77;11.50;;;;;;;5.03;100.00;100982.13;5034051;28;20239;-63
2022/11/13 08:25:47;;;;;;;16.47;9.90;;;;;;;5.20;100.00;100976.72;5033650;28;20185;-62
2022/11/13 08:28:13;;;;;;;13.20;10.40;;;;;;;5.05;100.00;100970.19;5032928;28;20201;-63
2022/11/13 08:30:42;;;;;;;12.10;9.30;;;;;;;5.15;100.00;100967.44;5020445;28;20228;-62
2022/11/13 08:33:08;;;;;;;17.13;9.30;;;;;;;4.54;100.00;100961.69;5049043;28;20252;-62
2022/11/13 08:35:33;;;;;;;20.47;9.57;;;;;;;4.30;100.00;100966.25;5051420;28;20185;-62
2022/11/13 08:38:03;;;;;;;11.87;8.90;;;;;;;4.42;100.00;100964.41;5051402;28;20728;-63
2022/11/13 08:40:29;;;;;;;25.33;8.83;;;;;;;4.20;100.00;100964.72;5022873;28;20218;-62
2022/11/13 08:43:02;;;;;;;20.07;9.73;;;;;;;4.53;100.00;100955.72;5050350;28;20231;-62
2022/11/13 08:45:29;;;;;;;11.63;9.53;;;;;;;4.76;100.00;100953.69;5033551;28;20599;-63
2022/11/13 08:47:59;;;;;;;11.53;9.07;;;;;;;4.61;100.00;100950.50;5033096;28;20191;-62
2022/11/13 08:50:24;;;;;;;33.87;8.97;;;;;;;4.51;100.00;100952.38;5023387;28;20331;-62
2022/11/13 08:52:56;;;;;;;12.20;9.30;;;;;;;4.72;100.00;100950.34;5050180;28;20394;-62
2022/11/13 08:55:22;;;;;;;12.00;9.03;;;;;;;4.92;100.00;100944.06;5033201;28;20186;-62
2022/11/13 08:57:48;;;;;;;14.00;9.60;;;;;;;4.98;100.00;100944.78;5061105;28;20180;-62
2022/11/13 09:00:14;;;;;;;12.57;8.57;;;;;;;4.85;100.00;100944.16;5043947;28;20266;-62
2022/11/13 09:02:39;;;;;;;14.63;8.33;;;;;;;5.57;100.00;100933.50;5059507;28;20195;-62
2022/11/13 09:05:05;;;;;;;15.93;7.53;;;;;;;7.09;100.00;100933.41;5051168;28;20177;-62
2022/11/13 09:07:31;;;;;;;7.43;6.57;;;;;;;9.53;100.00;100919.72;5050498;28;20576;-62
2022/11/13 09:09:56;;;;;;;9.33;6.10;;;;;;;10.21;100.00;100918.03;5051076;28;20184;-62
2022/11/13 09:12:21;;;;;;;6.27;5.77;;;;;;;9.64;100.00;100914.19;5050080;28;20946;-62
2022/11/13 09:14:46;;;;;;;6.53;5.93;;;;;;;10.29;100.00;100908.28;5051177;28;20216;-62
2022/11/13 09:17:12;;;;;;;6.37;5.77;;;;;;;10.28;100.00;100906.59;5050593;28;20631;-61
2022/11/13 09:19:37;;;;;;;6.40;5.80;;;;;;;11.76;100.00;100913.13;5033318;28;20276;-63
2022/11/13 09:22:05;;;;;;;6.60;4.90;;;;;;;14.41;93.13;100902.06;5039360;28;20221;-67
2022/11/13 09:24:30;;;;;;;5.80;5.27;;;;;;;16.70;68.96;100895.66;5050936;28;20258;-62
2022/11/13 09:26:55;;;;;;;5.10;4.70;;;;;;;18.33;57.27;100895.50;5050338;28;20633;-62
2022/11/13 09:29:22;;;;;;;6.03;4.87;;;;;;;18.83;50.85;100899.59;5051148;28;20170;-62
2022/11/13 09:31:48;;;;;;;5.10;4.70;;;;;;;19.90;46.63;100904.34;5017092;28;20221;-64
2022/11/13 09:34:13;;;;;;;5.10;4.70;;;;;;;20.99;42.53;100904.03;5033083;28;20224;-63
2022/11/13 09:36:38;;;;;;;5.37;4.80;;;;;;;20.44;41.63;100911.19;5053151;28;20185;-63
2022/11/13 09:39:04;;;;;;;4.40;4.00;;;;;;;17.84;50.27;100917.31;5054727;28;20657;-62
2022/11/13 09:41:38;;;;;;;4.90;4.50;;;;;;;19.63;46.74;100909.00;5043211;28;20217;-62
2022/11/13 09:44:12;;;;;;;4.73;4.40;;;;;;;20.45;43.71;100902.41;5036294;28;20194;-63
2022/11/13 09:46:43;;;;;;;4.87;4.40;;;;;;;20.85;42.18;100902.59;5036315;28;20215;-63
2022/11/13 09:49:16;;;;;;;4.40;4.00;;;;;;;21.75;40.74;100903.53;5054572;28;20182;-62
2022/11/13 09:51:50;;;;;;;5.30;4.90;;;;;;;21.59;39.54;100898.84;5026330;28;20233;-61
2022/11/13 09:54:16;;;;;;;4.57;4.10;;;;;;;19.89;43.58;100903.50;5036671;28;20202;-61
2022/11/13 09:57:12;;;;;;;4.93;4.53;;;;;;;18.38;47.58;100896.00;5054963;28;20539;-61
2022/11/13 09:59:58;;;;;;;5.30;4.77;;;;;;;17.32;54.01;100891.47;5062004;28;20302;-62
2022/11/13 10:03:03;;;;;;;5.63;5.10;;;;;;;15.10;68.57;100888.59;5031853;28;20221;-62
2022/11/13 10:05:44;;;;;;;6.87;6.13;;;;;;;13.45;88.07;100871.19;5054292;28;20181;-62
2022/11/13 10:08:16;;;;;;;6.57;5.97;;;;;;;12.83;94.20;100879.59;5053255;28;20189;-61
2022/11/13 10:11:08;;;;;;;6.03;5.60;;;;;;;10.44;100.00;100874.25;5045237;28;20519;-61
2022/11/13 10:13:43;;;;;;;11.77;6.50;;;;;;;9.32;100.00;100884.56;5041261;28;20205;-62
2022/11/13 10:16:32;;;;;;;7.47;6.80;;;;;;;8.63;100.00;100875.84;5053902;28;20177;-61
2022/11/13 10:19:24;;;;;;;7.70;7.00;;;;;;;8.50;100.00;100875.44;5054553;28;20189;-62
2022/11/13 10:21:58;;;;;;;8.97;7.63;;;;;;;8.32;100.00;100870.88;5028682;28;20221;-62
2022/11/13 10:24:37;;;;;;;8.27;7.47;;;;;;;8.41;100.00;100873.16;5035786;28;20185;-62
2022/11/13 10:27:07;;;;;;;8.60;7.80;;;;;;;8.39;100.00;100869.78;5035449;28;20183;-62
2022/11/13 10:29:33;;;;;;;8.07;7.37;;;;;;;8.23;100.00;100862.59;5035491;28;20264;-61
2022/11/13 10:32:19;;;;;;;9.23;6.87;;;;;;;8.17;100.00;100855.09;5040391;28;20214;-61
2022/11/13 10:34:51;;;;;;;7.43;6.83;;;;;;;8.16;100.00;100850.03;5025836;28;20672;-61
2022/11/13 10:37:29;;;;;;;9.40;7.17;;;;;;;8.10;100.00;100843.41;5035130;28;20233;-61
2022/11/13 10:39:54;;;;;;;8.07;7.20;;;;;;;7.99;100.00;100841.16;5036032;28;20545;-61
2022/11/13 10:42:35;;;;;;;8.27;7.47;;;;;;;8.25;100.00;100839.50;5042196;28;20225;-61
2022/11/13 10:45:01;;;;;;;8.70;7.67;;;;;;;8.29;100.00;100828.25;5053715;28;20177;-62
2022/11/13 10:47:32;;;;;;;8.43;7.63;;;;;;;8.49;100.00;100821.66;5052046;28;20649;-61
2022/11/13 10:50:10;;;;;;;7.60;6.80;;;;;;;8.49;100.00;100814.78;5035795;28;20265;-62
2022/11/13 10:52:44;;;;;;;8.90;8.00;;;;;;;8.44;100.00;100805.56;5030177;28;20221;-62
2022/11/13 10:55:37;;;;;;;9.17;8.23;;;;;;;8.48;100.00;100796.88;5035598;28;20583;-61
2022/11/13 10:58:15;;;;;;;11.97;9.63;;;;;;;8.50;100.00;100790.81;5034428;28;20692;-64
2022/11/13 11:00:46;;;;;;;10.37;9.27;;;;;;;8.67;100.00;100779.97;5031369;28;20239;-63
2022/11/13 11:03:16;;;;;;;11.03;9.73;;;;;;;8.82;100.00;100768.31;5056211;28;20190;-61
2022/11/13 11:05:56;;;;;;;10.23;9.23;;;;;;;8.81;100.00;100763.25;5035436;28;20537;-60
2022/11/13 11:08:31;;;;;;;10.43;9.43;;;;;;;8.80;100.00;100748.75;5034484;28;20620;-60
2022/11/13 11:14:23;;;;;;;9.50;7.50;;;;;;;8.72;100.00;100728.50;5052822;28;20553;-62
2022/11/13 11:16:51;;;;;;;9.40;8.00;;;;;;;8.87;100.00;100719.41;5040191;28;20181;-61
2022/11/13 11:19:25;;;;;;;9.20;7.97;;;;;;;9.03;100.00;100714.53;5035175;28;20173;-61
2022/11/13 11:22:08;;;;;;;8.63;7.70;;;;;;;8.76;100.00;100706.13;5025057;28;20233;-60